Terminal Aerodrome Forecast
Issued by NWS Grand Forks, ND

Home | Current Version | Previous Version | Text Only | Print | Product List | Glossary Off
Versions: 1 2 3 4 5 6 7 8 9 10 11 12 13 14 15 16 17 18

000
FTUS43 KFGF 252200 AAB
TAFFAR
TAF AMD
KFAR 252226Z 2522/2618 33010KT P6SM OVC024=

USA.gov is the U.S. government's official web portal to all federal, state and local government web resources and services.